Time;durP1;ratioP1;P1;durP2;ratioP2;P2;SDS_P1;SDS_P2;PMS_P1;PMS_P2;Temp;Humidity;BMP_temperature;BMP_pressure;BME280_temperature;BME280_humidity;BME280_pressure;Samples;Min_cycle;Max_cycle;Signal;HPM_P1;HPM_P2
2024/03/11 00:01:51;;;;;;;51.58;22.63;;;;;;;;;;6277926;28;20089;-81
2024/03/11 00:04:56;;;;;;;52.50;22.77;;;;;;;;;;6277775;28;20041;-82
2024/03/11 00:07:58;;;;;;;52.70;23.58;;;;;;;;;;6319851;28;20035;-78
2024/03/11 00:11:01;;;;;;;56.38;24.30;;;;;;;;;;6342481;27;20074;-77
2024/03/11 00:14:06;;;;;;;53.33;23.67;;;;;;;;;;6331290;27;20136;-79
2024/03/11 00:17:08;;;;;;;55.83;23.83;;;;;;;;;;6316227;28;20052;-82
2024/03/11 00:20:10;;;;;;;50.40;21.35;;;;;;;;;;6314119;28;20070;-81
2024/03/11 00:23:13;;;;;;;55.75;24.02;;;;;;;;;;6313959;28;20044;-79
2024/03/11 00:26:14;;;;;;;52.65;22.60;;;;;;;;;;6314200;28;20040;-81
2024/03/11 00:29:17;;;;;;;50.88;22.58;;;;;;;;;;6296866;28;20119;-81
2024/03/11 00:32:20;;;;;;;53.17;23.20;;;;;;;;;;6295058;28;20417;-85
2024/03/11 00:35:24;;;;;;;52.40;23.15;;;;;;;;;;6315630;28;20524;-79
2024/03/11 00:38:26;;;;;;;51.28;21.75;;;;;;;;;;6294110;28;21084;-78
2024/03/11 00:41:28;;;;;;;58.05;24.00;;;;;;;;;;6312432;28;20490;-81
2024/03/11 00:44:29;;;;;;;52.58;23.75;;;;;;;;;;6317475;28;20052;-82
2024/03/11 00:47:31;;;;;;;59.72;23.80;;;;;;;;;;6309545;28;20798;-80
2024/03/11 00:50:34;;;;;;;56.88;24.50;;;;;;;;;;6312361;28;20039;-81
2024/03/11 00:53:36;;;;;;;59.92;25.48;;;;;;;;;;6295459;27;20063;-82
2024/03/11 00:56:39;;;;;;;55.00;24.30;;;;;;;;;;6309639;28;20044;-82
2024/03/11 00:59:41;;;;;;;59.60;24.42;;;;;;;;;;6295199;28;20138;-80
2024/03/11 01:02:46;;;;;;;58.03;23.35;;;;;;;;;;6309104;27;20040;-82
2024/03/11 01:05:49;;;;;;;54.90;23.15;;;;;;;;;;6301791;28;20122;-81
2024/03/11 01:08:51;;;;;;;60.92;23.15;;;;;;;;;;6309324;28;20501;-80
2024/03/11 01:11:53;;;;;;;54.05;23.00;;;;;;;;;;6308977;28;20044;-79
2024/03/11 01:14:55;;;;;;;62.60;24.17;;;;;;;;;;6315260;27;21219;-82
2024/03/11 01:17:57;;;;;;;55.97;24.60;;;;;;;;;;6306765;27;20501;-82
2024/03/11 01:21:00;;;;;;;59.47;24.15;;;;;;;;;;6284057;28;20049;-82
2024/03/11 01:24:03;;;;;;;53.53;22.58;;;;;;;;;;6281754;28;20567;-81
2024/03/11 01:27:10;;;;;;;62.05;25.45;;;;;;;;;;6266711;28;20063;-81
2024/03/11 01:30:14;;;;;;;57.50;24.50;;;;;;;;;;6298205;28;20040;-78
2024/03/11 01:33:16;;;;;;;57.78;24.52;;;;;;;;;;6294072;28;20495;-81
2024/03/11 01:36:18;;;;;;;60.35;23.73;;;;;;;;;;6305194;28;20044;-81
2024/03/11 01:39:42;;;;;;;60.10;23.98;;;;;;;;;;6302466;28;20047;-80
2024/03/11 01:42:45;;;;;;;61.38;25.42;;;;;;;;;;6305901;28;21404;-81
2024/03/11 01:45:46;;;;;;;62.10;25.70;;;;;;;;;;6304154;28;20040;-81
2024/03/11 01:48:48;;;;;;;57.05;23.83;;;;;;;;;;6295455;28;20059;-82
2024/03/11 01:51:51;;;;;;;61.15;24.27;;;;;;;;;;6298547;28;20046;-78
2024/03/11 01:54:55;;;;;;;60.30;24.75;;;;;;;;;;6315259;27;20117;-81
2024/03/11 01:57:59;;;;;;;60.58;25.48;;;;;;;;;;6303362;28;21815;-79
2024/03/11 02:01:01;;;;;;;63.40;24.90;;;;;;;;;;6309295;28;20050;-80
2024/03/11 02:04:03;;;;;;;55.85;24.45;;;;;;;;;;6316494;28;20073;-77
2024/03/11 02:07:06;;;;;;;56.13;23.38;;;;;;;;;;6299300;28;20048;-81
2024/03/11 02:10:13;;;;;;;58.63;23.58;;;;;;;;;;6298657;28;20075;-80
2024/03/11 02:13:15;;;;;;;63.53;25.42;;;;;;;;;;6308555;28;20521;-81
2024/03/11 02:16:17;;;;;;;61.70;25.00;;;;;;;;;;6305330;28;20040;-81
2024/03/11 02:19:18;;;;;;;67.35;25.40;;;;;;;;;;6297530;28;20043;-81
2024/03/11 02:22:20;;;;;;;61.38;24.75;;;;;;;;;;6276370;28;20045;-81
2024/03/11 02:25:27;;;;;;;60.78;25.45;;;;;;;;;;6275695;28;20055;-80
2024/03/11 02:28:30;;;;;;;62.72;24.50;;;;;;;;;;6294262;28;20051;-81
2024/03/11 02:31:33;;;;;;;61.53;25.23;;;;;;;;;;6296600;28;20044;-76
2024/03/11 02:34:34;;;;;;;64.10;25.30;;;;;;;;;;6292978;28;20088;-77
2024/03/11 02:37:38;;;;;;;56.42;23.05;;;;;;;;;;6313202;28;20089;-81
2024/03/11 02:40:42;;;;;;;56.17;22.95;;;;;;;;;;6298950;27;20047;-77
2024/03/11 02:43:43;;;;;;;59.42;24.40;;;;;;;;;;6309375;28;20530;-79
2024/03/11 02:46:47;;;;;;;57.28;23.15;;;;;;;;;;6317901;28;20131;-79
2024/03/11 02:49:50;;;;;;;63.33;23.67;;;;;;;;;;6297368;28;20094;-82
2024/03/11 02:52:51;;;;;;;64.70;25.13;;;;;;;;;;6304517;28;20044;-78
2024/03/11 02:55:53;;;;;;;59.70;24.83;;;;;;;;;;6301720;28;20039;-81
2024/03/11 02:58:55;;;;;;;64.95;25.02;;;;;;;;;;6300267;28;20051;-80
2024/03/11 03:01:57;;;;;;;68.35;24.85;;;;;;;;;;6293204;28;20512;-82
2024/03/11 03:04:59;;;;;;;55.70;22.58;;;;;;;;;;6288947;28;20048;-81
2024/03/11 03:08:00;;;;;;;55.88;23.42;;;;;;;;;;6279301;28;20053;-80
2024/03/11 03:11:03;;;;;;;63.75;24.15;;;;;;;;;;6300968;28;20051;-79
2024/03/11 03:14:06;;;;;;;61.85;23.88;;;;;;;;;;6294974;28;20048;-79
2024/03/11 03:17:08;;;;;;;58.92;24.48;;;;;;;;;;6297751;28;20123;-83
2024/03/11 03:20:12;;;;;;;61.50;22.48;;;;;;;;;;6294560;28;20052;-81
2024/03/11 03:23:14;;;;;;;53.17;21.70;;;;;;;;;;6304816;28;20051;-79
2024/03/11 03:26:16;;;;;;;60.90;23.48;;;;;;;;;;6307820;28;20048;-81
2024/03/11 03:29:18;;;;;;;54.05;21.80;;;;;;;;;;6298382;28;20135;-82
2024/03/11 03:32:22;;;;;;;59.37;22.60;;;;;;;;;;6303310;28;20044;-83
2024/03/11 03:35:24;;;;;;;59.25;23.40;;;;;;;;;;6310574;28;20412;-81
2024/03/11 03:38:26;;;;;;;57.72;23.90;;;;;;;;;;6301933;28;20040;-81
2024/03/11 03:41:28;;;;;;;60.22;23.52;;;;;;;;;;6294583;28;20080;-81
2024/03/11 03:44:30;;;;;;;60.88;23.85;;;;;;;;;;6284569;28;20203;-78
2024/03/11 03:47:32;;;;;;;61.60;23.65;;;;;;;;;;6280580;28;20041;-82
2024/03/11 03:50:34;;;;;;;61.17;24.35;;;;;;;;;;6280524;28;20048;-80
2024/03/11 03:53:36;;;;;;;58.83;23.50;;;;;;;;;;6301018;28;20040;-80
2024/03/11 03:56:38;;;;;;;65.47;23.98;;;;;;;;;;6298979;28;20464;-80
2024/03/11 03:59:40;;;;;;;64.93;23.65;;;;;;;;;;6324255;28;20043;-79
2024/03/11 04:02:46;;;;;;;63.03;24.60;;;;;;;;;;6303364;28;20052;-78
2024/03/11 04:05:49;;;;;;;59.53;23.00;;;;;;;;;;6308105;28;20045;-78
2024/03/11 04:08:51;;;;;;;57.83;23.00;;;;;;;;;;6324517;28;20129;-83
2024/03/11 04:11:54;;;;;;;62.08;24.20;;;;;;;;;;6315879;27;20127;-80
2024/03/11 04:14:56;;;;;;;;;;;;;;;;;;6285760;28;20519;-82
2024/03/11 04:17:59;;;;;;;56.15;21.67;;;;;;;;;;6283881;28;19928;-80
2024/03/11 04:21:05;;;;;;;65.10;25.17;;;;;;;;;;6301423;28;20077;-82
2024/03/11 04:24:08;;;;;;;63.40;23.98;;;;;;;;;;6312240;28;20043;-78
2024/03/11 04:27:11;;;;;;;60.95;24.80;;;;;;;;;;6333679;28;20101;-77
2024/03/11 04:30:15;;;;;;;61.85;25.35;;;;;;;;;;6334156;27;20034;-77
2024/03/11 04:33:17;;;;;;;;;;;;;;;;;;6315250;27;21000;-82
2024/03/11 04:36:18;;;;;;;61.03;22.38;;;;;;;;;;6302411;28;19928;-79
2024/03/11 04:39:21;;;;;;;68.55;25.63;;;;;;;;;;6328234;28;20044;-78
2024/03/11 04:42:23;;;;;;;67.68;25.15;;;;;;;;;;6329617;28;20054;-79
2024/03/11 04:45:26;;;;;;;66.45;25.23;;;;;;;;;;6328690;28;20044;-79
2024/03/11 04:48:28;;;;;;;70.47;24.83;;;;;;;;;;6333759;27;20064;-80
2024/03/11 04:51:30;;;;;;;72.57;26.15;;;;;;;;;;6303502;28;20063;-78
2024/03/11 04:54:33;;;;;;;64.82;23.92;;;;;;;;;;6302413;28;20029;-79
2024/03/11 04:57:35;;;;;;;66.97;24.48;;;;;;;;;;6301534;28;20044;-78
2024/03/11 05:00:37;;;;;;;63.28;23.95;;;;;;;;;;6316488;28;20053;-79
2024/03/11 05:03:38;;;;;;;62.00;24.60;;;;;;;;;;6297214;28;20044;-82
2024/03/11 05:06:40;;;;;;;66.50;22.98;;;;;;;;;;6290739;28;20048;-82
2024/03/11 05:09:42;;;;;;;61.33;23.13;;;;;;;;;;6289533;28;20055;-83
2024/03/11 05:12:44;;;;;;;59.25;23.10;;;;;;;;;;6293494;28;20063;-79
2024/03/11 05:15:48;;;;;;;61.63;21.63;;;;;;;;;;6306766;28;20051;-81
2024/03/11 05:18:52;;;;;;;62.83;23.77;;;;;;;;;;6308542;28;20044;-80
2024/03/11 05:21:53;;;;;;;51.45;20.38;;;;;;;;;;6297461;27;20126;-82
2024/03/11 05:24:55;;;;;;;61.03;23.45;;;;;;;;;;6328236;28;20055;-81
2024/03/11 05:27:58;;;;;;;58.53;21.10;;;;;;;;;;6314061;28;20049;-80
2024/03/11 05:31:00;;;;;;;58.03;21.40;;;;;;;;;;6303441;28;20048;-77
2024/03/11 05:34:02;;;;;;;61.10;22.27;;;;;;;;;;6307589;28;20048;-83
2024/03/11 05:37:06;;;;;;;50.28;20.40;;;;;;;;;;6321192;27;20047;-82
2024/03/11 05:40:11;;;;;;;52.38;19.70;;;;;;;;;;6307401;28;20481;-82
2024/03/11 05:43:14;;;;;;;45.88;17.48;;;;;;;;;;6302099;28;20089;-84
2024/03/11 05:46:16;;;;;;;46.55;17.63;;;;;;;;;;6305155;28;20051;-84
2024/03/11 05:49:17;;;;;;;40.47;16.92;;;;;;;;;;6316241;28;20044;-81
2024/03/11 05:52:25;;;;;;;40.50;15.82;;;;;;;;;;6307774;28;20465;-81
2024/03/11 05:55:32;;;;;;;41.83;16.13;;;;;;;;;;6309777;27;20392;-79
2024/03/11 05:58:34;;;;;;;38.05;16.30;;;;;;;;;;6286841;28;20035;-84
2024/03/11 06:01:36;;;;;;;38.50;16.00;;;;;;;;;;6311682;27;20035;-80
2024/03/11 06:04:38;;;;;;;37.78;15.38;;;;;;;;;;6281746;27;20048;-83
2024/03/11 06:07:39;;;;;;;45.80;15.98;;;;;;;;;;6310468;28;20516;-82
2024/03/11 06:10:41;;;;;;;37.40;15.85;;;;;;;;;;6302102;28;20040;-84
2024/03/11 06:13:43;;;;;;;38.78;16.08;;;;;;;;;;6316016;27;20040;-83
2024/03/11 06:16:45;;;;;;;36.03;15.13;;;;;;;;;;6304493;28;20040;-81
2024/03/11 06:19:47;;;;;;;25.05;10.60;;;;;;;;;;6320523;28;20047;-82
2024/03/11 06:22:49;;;;;;;27.17;11.23;;;;;;;;;;6305574;27;20044;-84
2024/03/11 06:25:51;;;;;;;22.52;9.93;;;;;;;;;;6306332;28;20036;-83
2024/03/11 06:28:52;;;;;;;23.13;9.57;;;;;;;;;;6308567;28;20050;-85
2024/03/11 06:31:55;;;;;;;18.58;7.32;;;;;;;;;;6315810;28;20051;-83
2024/03/11 06:34:57;;;;;;;15.30;6.63;;;;;;;;;;6315649;28;20414;-83
2024/03/11 06:37:59;;;;;;;17.80;7.40;;;;;;;;;;6315445;27;20829;-84
2024/03/11 06:41:00;;;;;;;16.00;6.47;;;;;;;;;;6316280;28;20055;-85
2024/03/11 06:44:02;;;;;;;9.15;4.50;;;;;;;;;;6313497;28;20229;-82
2024/03/11 06:47:05;;;;;;;7.03;3.25;;;;;;;;;;6309208;28;20049;-83
2024/03/11 06:50:08;;;;;;;4.05;2.60;;;;;;;;;;6314229;27;20077;-82
2024/03/11 06:53:10;;;;;;;2.45;1.40;;;;;;;;;;6313050;28;20040;-82
2024/03/11 06:56:12;;;;;;;2.25;1.20;;;;;;;;;;6294615;28;20520;-84
2024/03/11 06:59:13;;;;;;;2.22;1.40;;;;;;;;;;6295016;27;20054;-86
2024/03/11 07:02:20;;;;;;;2.30;1.20;;;;;;;;;;6312907;28;20116;-85
2024/03/11 07:05:26;;;;;;;1.42;0.70;;;;;;;;;;6315153;27;20053;-81
2024/03/11 07:08:32;;;;;;;1.88;0.85;;;;;;;;;;6323283;28;20048;-81
2024/03/11 07:11:34;;;;;;;0.75;0.60;;;;;;;;;;6323870;28;20101;-83
2024/03/11 07:14:37;;;;;;;2.65;0.98;;;;;;;;;;6312626;28;20055;-84
2024/03/11 07:17:40;;;;;;;1.85;0.70;;;;;;;;;;6306936;28;20036;-85
2024/03/11 07:20:44;;;;;;;0.55;0.50;;;;;;;;;;6302673;28;20457;-82
2024/03/11 07:23:48;;;;;;;1.30;0.88;;;;;;;;;;6307073;28;21607;-82
2024/03/11 07:26:50;;;;;;;1.15;0.63;;;;;;;;;;6292035;28;20048;-85
2024/03/11 07:29:52;;;;;;;1.20;0.63;;;;;;;;;;6309616;28;20104;-83
2024/03/11 07:33:04;;;;;;;1.23;0.47;;;;;;;;;;6310240;28;20047;-82
2024/03/11 07:36:07;;;;;;;1.55;0.38;;;;;;;;;;6316150;28;20049;-85
2024/03/11 07:39:10;;;;;;;2.35;0.50;;;;;;;;;;6308562;28;20045;-85
2024/03/11 07:42:13;;;;;;;0.50;0.50;;;;;;;;;;6289384;27;20051;-83
2024/03/11 07:45:15;;;;;;;0.65;0.35;;;;;;;;;;6286422;28;20066;-84
2024/03/11 07:48:17;;;;;;;0.52;0.25;;;;;;;;;;6305016;28;20048;-84
2024/03/11 07:51:19;;;;;;;0.45;0.45;;;;;;;;;;6298615;28;20185;-86
2024/03/11 07:54:21;;;;;;;1.23;0.40;;;;;;;;;;6274829;28;20041;-85
2024/03/11 07:57:25;;;;;;;0.35;0.35;;;;;;;;;;6294279;28;20123;-86
2024/03/11 08:00:29;;;;;;;;;;;;;;;;;;6294839;28;20051;-84
2024/03/11 08:03:31;;;;;;;0.40;0.40;;;;;;;;;;6274631;28;19928;-85
2024/03/11 08:06:35;;;;;;;0.50;0.50;;;;;;;;;;6297133;28;20040;-86
2024/03/11 08:09:37;;;;;;;4.15;2.08;;;;;;;;;;6264066;28;20053;-85
2024/03/11 08:12:43;;;;;;;1.58;1.00;;;;;;;;;;6264088;28;20057;-85
2024/03/11 08:15:45;;;;;;;1.83;1.35;;;;;;;;;;6274062;28;20049;-86
2024/03/11 08:18:49;;;;;;;0.55;0.47;;;;;;;;;;6256979;28;20051;-85
2024/03/11 08:21:51;;;;;;;0.60;0.50;;;;;;;;;;6297820;28;20413;-81
2024/03/11 08:24:52;;;;;;;0.20;0.20;;;;;;;;;;6300291;28;20047;-84
2024/03/11 08:27:55;;;;;;;1.30;0.50;;;;;;;;;;6299261;28;20051;-80
2024/03/11 08:30:56;;;;;;;0.30;0.30;;;;;;;;;;6307682;28;20107;-77
2024/03/11 08:34:00;;;;;;;3.15;1.90;;;;;;;;;;6341333;27;20502;-84
2024/03/11 08:37:04;;;;;;;2.28;1.58;;;;;;;;;;6292287;28;20048;-82
2024/03/11 08:40:08;;;;;;;2.17;1.58;;;;;;;;;;6271910;28;20178;-85
2024/03/11 08:43:10;;;;;;;0.77;0.30;;;;;;;;;;6273837;28;20090;-85
2024/03/11 08:46:11;;;;;;;3.22;2.35;;;;;;;;;;6281230;28;20047;-85
2024/03/11 08:49:13;;;;;;;2.10;1.10;;;;;;;;;;6295888;28;20055;-86
2024/03/11 08:52:17;;;;;;;1.60;0.60;;;;;;;;;;6313473;28;20039;-81
2024/03/11 08:55:19;;;;;;;0.80;0.50;;;;;;;;;;6355162;28;20028;-81
2024/03/11 08:58:20;;;;;;;0.65;0.50;;;;;;;;;;6331210;27;20036;-82
2024/03/11 09:01:22;;;;;;;0.20;0.20;;;;;;;;;;6337121;28;20041;-82
2024/03/11 09:04:28;;;;;;;0.32;0.30;;;;;;;;;;6321965;28;20131;-84
2024/03/11 09:07:30;;;;;;;0.22;0.20;;;;;;;;;;6307484;28;20059;-84
2024/03/11 09:10:32;;;;;;;0.20;0.20;;;;;;;;;;6292340;28;20087;-84
2024/03/11 09:13:34;;;;;;;0.20;0.20;;;;;;;;;;6303237;28;20049;-82
2024/03/11 09:16:37;;;;;;;0.25;0.25;;;;;;;;;;6298736;28;20132;-85
2024/03/11 09:19:44;;;;;;;;;;;;;;;;;;6320244;28;20025;-82
2024/03/11 09:22:49;;;;;;;0.95;0.40;;;;;;;;;;6328443;28;19914;-81
2024/03/11 09:25:51;;;;;;;0.20;0.20;;;;;;;;;;6309355;28;20416;-85
2024/03/11 09:28:57;;;;;;;0.50;0.50;;;;;;;;;;6309264;28;20126;-83
2024/03/11 09:32:02;;;;;;;1.17;0.35;;;;;;;;;;6309401;28;20054;-83
2024/03/11 09:35:05;;;;;;;0.32;0.30;;;;;;;;;;6313215;27;20048;-84
2024/03/11 09:38:07;;;;;;;0.32;0.30;;;;;;;;;;6311796;27;20059;-83
2024/03/11 09:41:14;;;;;;;0.30;0.30;;;;;;;;;;6313099;28;20399;-85
2024/03/11 09:44:20;;;;;;;1.05;0.47;;;;;;;;;;6309866;27;20588;-85
2024/03/11 09:47:24;;;;;;;1.13;0.82;;;;;;;;;;6307056;27;21549;-84
2024/03/11 09:50:30;;;;;;;1.15;0.80;;;;;;;;;;6303274;28;20051;-85
2024/03/11 09:53:33;;;;;;;4.25;3.13;;;;;;;;;;6267991;28;20050;-84
2024/03/11 09:56:35;;;;;;;1.27;1.08;;;;;;;;;;6281118;28;20045;-84
2024/03/11 09:59:41;;;;;;;3.00;2.33;;;;;;;;;;6305505;28;20039;-85
2024/03/11 10:02:51;;;;;;;1.38;1.00;;;;;;;;;;6302659;27;20449;-85
2024/03/11 10:05:56;;;;;;;1.98;0.85;;;;;;;;;;6312541;28;20068;-85
2024/03/11 10:08:59;;;;;;;0.68;0.60;;;;;;;;;;6295328;28;20127;-85
2024/03/11 10:12:08;;;;;;;0.65;0.65;;;;;;;;;;6298181;28;20048;-85
2024/03/11 10:15:32;;;;;;;1.35;1.20;;;;;;;;;;6305427;28;20044;-84
2024/03/11 10:18:36;;;;;;;1.20;0.90;;;;;;;;;;6314289;28;20066;-83
2024/03/11 10:21:42;;;;;;;0.75;0.50;;;;;;;;;;6315774;28;20044;-83
2024/03/11 10:24:46;;;;;;;1.27;0.70;;;;;;;;;;6279210;28;20052;-83
2024/03/11 10:27:50;;;;;;;0.75;0.65;;;;;;;;;;6269930;28;20048;-85
2024/03/11 10:30:53;;;;;;;0.93;0.80;;;;;;;;;;6298995;28;20543;-85
2024/03/11 10:34:10;;;;;;;2.28;1.63;;;;;;;;;;6305320;28;20591;-81
2024/03/11 10:37:18;;;;;;;2.50;0.80;;;;;;;;;;6310000;28;20086;-83
2024/03/11 10:40:30;;;;;;;1.70;0.90;;;;;;;;;;6294110;28;20108;-85
2024/03/11 10:43:32;;;;;;;1.35;1.05;;;;;;;;;;6289173;28;20044;-84
2024/03/11 10:46:35;;;;;;;0.88;0.70;;;;;;;;;;6303965;28;20043;-84
2024/03/11 10:49:40;;;;;;;1.02;0.70;;;;;;;;;;6262308;28;20426;-86
2024/03/11 10:52:43;;;;;;;1.83;0.80;;;;;;;;;;6303785;27;20040;-86
2024/03/11 10:55:53;;;;;;;1.50;1.27;;;;;;;;;;6281300;28;20418;-85
2024/03/11 10:58:56;;;;;;;1.48;1.30;;;;;;;;;;6294259;28;20123;-85
2024/03/11 11:01:57;;;;;;;2.08;1.40;;;;;;;;;;6299257;28;20051;-86
2024/03/11 11:05:02;;;;;;;2.22;1.55;;;;;;;;;;6310373;28;20440;-84
2024/03/11 11:08:05;;;;;;;1.42;1.00;;;;;;;;;;6320710;27;20044;-85
2024/03/11 11:11:13;;;;;;;1.77;1.50;;;;;;;;;;6308920;28;20051;-84
2024/03/11 11:14:20;;;;;;;2.30;1.15;;;;;;;;;;6307624;28;20115;-85
2024/03/11 11:17:23;;;;;;;2.47;1.73;;;;;;;;;;6315824;28;20051;-84
2024/03/11 11:20:30;;;;;;;2.55;1.27;;;;;;;;;;6309314;28;20048;-84
2024/03/11 11:23:36;;;;;;;2.97;2.00;;;;;;;;;;6310368;28;20058;-84
2024/03/11 11:26:42;;;;;;;3.22;1.80;;;;;;;;;;6293717;28;20044;-83
2024/03/11 11:29:46;;;;;;;4.32;1.50;;;;;;;;;;6315374;28;20149;-86
2024/03/11 11:32:49;;;;;;;2.10;1.42;;;;;;;;;;6301474;28;20035;-83
2024/03/11 11:35:51;;;;;;;2.55;1.70;;;;;;;;;;6337219;28;20341;-83
2024/03/11 11:38:53;;;;;;;2.40;1.35;;;;;;;;;;6290631;28;20056;-85
2024/03/11 11:41:57;;;;;;;1.97;1.10;;;;;;;;;;6286007;28;20040;-84
2024/03/11 11:44:59;;;;;;;2.50;1.08;;;;;;;;;;6274150;28;20053;-85
2024/03/11 11:48:19;;;;;;;1.77;1.13;;;;;;;;;;6282492;28;20051;-83
2024/03/11 11:51:24;;;;;;;1.48;1.00;;;;;;;;;;6277183;28;20045;-83
2024/03/11 11:54:28;;;;;;;1.60;1.10;;;;;;;;;;6306559;28;20040;-83
2024/03/11 11:57:38;;;;;;;2.65;1.50;;;;;;;;;;6314967;28;20047;-83
2024/03/11 12:00:45;;;;;;;3.15;1.70;;;;;;;;;;6275005;28;20080;-82
2024/03/11 12:03:47;;;;;;;3.70;2.10;;;;;;;;;;6264722;28;20059;-83
2024/03/11 12:06:50;;;;;;;2.03;1.42;;;;;;;;;;6326362;27;20526;-82
2024/03/11 12:09:57;;;;;;;4.63;1.95;;;;;;;;;;6288142;27;20131;-84
2024/03/11 12:13:00;;;;;;;3.08;2.22;;;;;;;;;;6305071;28;20044;-84
2024/03/11 12:16:20;;;;;;;4.65;2.55;;;;;;;;;;6301344;28;20051;-84
2024/03/11 12:19:22;;;;;;;5.18;2.78;;;;;;;;;;6301918;27;20056;-84
2024/03/11 12:22:25;;;;;;;6.72;3.03;;;;;;;;;;6310323;28;20281;-83
2024/03/11 12:25:33;;;;;;;6.60;3.00;;;;;;;;;;6313319;28;20052;-81
2024/03/11 12:28:43;;;;;;;5.72;3.08;;;;;;;;;;6313541;27;20028;-81
2024/03/11 12:31:52;;;;;;;5.63;3.05;;;;;;;;;;6304894;28;20046;-83
2024/03/11 12:34:59;;;;;;;7.35;3.20;;;;;;;;;;6306326;28;20060;-85
2024/03/11 12:38:02;;;;;;;8.07;3.67;;;;;;;;;;6314085;28;20052;-83
2024/03/11 12:41:04;;;;;;;6.15;3.15;;;;;;;;;;6296587;28;20040;-83
2024/03/11 12:48:29;;;;;;;9.55;4.13;;;;;;;;;;6226389;28;20055;-84
2024/03/11 12:51:31;;;;;;;8.35;4.10;;;;;;;;;;6303563;28;20044;-83
2024/03/11 12:54:33;;;;;;;9.20;4.13;;;;;;;;;;6296788;28;20123;-84
2024/03/11 12:57:35;;;;;;;9.43;4.20;;;;;;;;;;6306262;28;20489;-84
2024/03/11 13:00:40;;;;;;;10.73;5.00;;;;;;;;;;6296768;28;20044;-85
2024/03/11 13:03:43;;;;;;;8.52;4.20;;;;;;;;;;6298278;28;20130;-87
2024/03/11 13:06:45;;;;;;;9.82;4.63;;;;;;;;;;6292424;28;20043;-84
2024/03/11 13:09:53;;;;;;;10.80;4.93;;;;;;;;;;6283923;28;20043;-85
2024/03/11 13:12:55;;;;;;;12.00;5.38;;;;;;;;;;6285928;28;20782;-84
2024/03/11 13:15:59;;;;;;;10.93;5.68;;;;;;;;;;6302888;27;20212;-85
2024/03/11 13:19:01;;;;;;;10.50;5.32;;;;;;;;;;6303710;28;20083;-84
2024/03/11 13:22:17;;;;;;;15.85;6.32;;;;;;;;;;6306828;28;20497;-84
2024/03/11 13:25:19;;;;;;;11.55;5.50;;;;;;;;;;6303901;27;20052;-85
2024/03/11 13:28:22;;;;;;;11.20;6.00;;;;;;;;;;6311057;27;20044;-85
2024/03/11 13:31:27;;;;;;;11.02;5.13;;;;;;;;;;6296166;27;20048;-85
2024/03/11 13:34:38;;;;;;;10.65;5.47;;;;;;;;;;6317242;27;20127;-85
2024/03/11 13:37:40;;;;;;;12.90;6.53;;;;;;;;;;6299071;28;20704;-84
2024/03/11 13:40:41;;;;;;;12.45;5.97;;;;;;;;;;6289354;28;20048;-86
2024/03/11 13:43:43;;;;;;;12.05;6.32;;;;;;;;;;6323477;28;21407;-84
2024/03/11 13:46:48;;;;;;;11.40;6.03;;;;;;;;;;6328015;28;20048;-83
2024/03/11 13:49:50;;;;;;;10.52;5.35;;;;;;;;;;6322902;28;20450;-85
2024/03/11 13:52:52;;;;;;;9.57;5.00;;;;;;;;;;6286052;28;20099;-83
2024/03/11 13:55:55;;;;;;;10.95;6.03;;;;;;;;;;6287275;28;20418;-83
2024/03/11 13:58:58;;;;;;;10.27;5.85;;;;;;;;;;6293241;28;20044;-86
2024/03/11 14:01:59;;;;;;;9.20;4.70;;;;;;;;;;6311055;28;20063;-85
2024/03/11 14:05:03;;;;;;;8.88;5.05;;;;;;;;;;6311063;28;20059;-84
2024/03/11 14:08:05;;;;;;;10.48;5.65;;;;;;;;;;6299129;28;20216;-86
2024/03/11 14:11:07;;;;;;;10.48;5.72;;;;;;;;;;6308988;28;20052;-84
2024/03/11 14:14:13;;;;;;;9.85;5.50;;;;;;;;;;6313776;28;20573;-84
2024/03/11 14:17:15;;;;;;;9.73;5.25;;;;;;;;;;6302284;28;20041;-85
2024/03/11 14:20:20;;;;;;;8.43;4.90;;;;;;;;;;6298067;27;20035;-85
2024/03/11 14:23:22;;;;;;;8.07;4.72;;;;;;;;;;6307960;28;20048;-83
2024/03/11 14:26:27;;;;;;;11.75;5.47;;;;;;;;;;6290115;27;20103;-83
2024/03/11 14:29:30;;;;;;;7.82;4.20;;;;;;;;;;6308389;28;20051;-83
2024/03/11 14:32:33;;;;;;;8.05;4.13;;;;;;;;;;6302023;28;20490;-82
2024/03/11 14:35:35;;;;;;;6.72;4.15;;;;;;;;;;6313355;27;20053;-85
2024/03/11 14:38:38;;;;;;;6.28;4.25;;;;;;;;;;6305911;28;20442;-86
2024/03/11 14:41:43;;;;;;;7.87;4.10;;;;;;;;;;6310482;28;20126;-85
2024/03/11 14:44:47;;;;;;;9.88;4.18;;;;;;;;;;6301430;28;20047;-86
2024/03/11 14:47:49;;;;;;;8.18;4.38;;;;;;;;;;6306437;28;20048;-85
2024/03/11 14:50:52;;;;;;;7.15;3.80;;;;;;;;;;6302982;27;20508;-85
2024/03/11 14:53:55;;;;;;;5.68;3.53;;;;;;;;;;6302816;27;20040;-81
2024/03/11 14:56:57;;;;;;;5.63;3.40;;;;;;;;;;6305076;28;20050;-82
2024/03/11 15:00:01;;;;;;;6.93;4.15;;;;;;;;;;6296293;28;20058;-84
2024/03/11 15:03:13;;;;;;;7.10;3.47;;;;;;;;;;6292830;28;21070;-84
2024/03/11 15:06:15;;;;;;;5.32;3.78;;;;;;;;;;6313301;28;20060;-84
2024/03/11 15:09:20;;;;;;;6.25;3.90;;;;;;;;;;6296476;28;20044;-83
2024/03/11 15:12:23;;;;;;;5.90;3.75;;;;;;;;;;6309840;28;20051;-84
2024/03/11 15:15:25;;;;;;;8.50;4.03;;;;;;;;;;6297935;27;20553;-83
2024/03/11 15:18:27;;;;;;;4.32;2.88;;;;;;;;;;6305144;28;20041;-84
2024/03/11 15:21:30;;;;;;;6.25;3.35;;;;;;;;;;6278050;28;20052;-85
2024/03/11 15:24:33;;;;;;;6.95;3.50;;;;;;;;;;6283570;28;20050;-82
2024/03/11 15:27:35;;;;;;;6.72;3.08;;;;;;;;;;6296323;27;20051;-81
2024/03/11 15:30:37;;;;;;;6.28;3.35;;;;;;;;;;6318119;28;20047;-82
2024/03/11 15:33:39;;;;;;;5.63;3.47;;;;;;;;;;6315531;28;20048;-84
2024/03/11 15:36:41;;;;;;;4.13;2.92;;;;;;;;;;6308245;28;20047;-84
2024/03/11 15:39:44;;;;;;;4.65;3.42;;;;;;;;;;6308526;28;20044;-83
2024/03/11 15:42:46;;;;;;;6.07;3.13;;;;;;;;;;6303877;28;20054;-84
2024/03/11 15:45:49;;;;;;;5.95;3.58;;;;;;;;;;6301281;28;20051;-83
2024/03/11 15:48:53;;;;;;;;;;;;;;;;;;6308795;28;20047;-84
2024/03/11 15:51:59;;;;;;;6.18;3.00;;;;;;;;;;6286954;28;19924;-82
2024/03/11 15:55:01;;;;;;;5.32;2.97;;;;;;;;;;6315398;27;20035;-80
2024/03/11 15:58:03;;;;;;;5.05;3.20;;;;;;;;;;6335402;28;20058;-81
2024/03/11 16:01:07;;;;;;;5.53;2.95;;;;;;;;;;6335850;28;20031;-80
2024/03/11 16:04:09;;;;;;;4.95;3.20;;;;;;;;;;6335088;28;20047;-82
2024/03/11 16:07:11;;;;;;;5.07;3.10;;;;;;;;;;6336711;27;20055;-82
2024/03/11 16:10:15;;;;;;;5.53;3.00;;;;;;;;;;6348141;28;20032;-83
2024/03/11 16:13:19;;;;;;;3.53;2.60;;;;;;;;;;6326915;28;20077;-84
2024/03/11 16:16:22;;;;;;;5.13;2.30;;;;;;;;;;6306967;27;20043;-84
2024/03/11 16:19:25;;;;;;;4.25;2.63;;;;;;;;;;6307412;27;20039;-82
2024/03/11 16:22:27;;;;;;;3.90;2.63;;;;;;;;;;6340986;28;20028;-82
2024/03/11 16:25:29;;;;;;;4.50;2.65;;;;;;;;;;6347191;28;20043;-83
2024/03/11 16:28:32;;;;;;;;;;;;;;;;;;6306188;28;20047;-84
2024/03/11 16:31:34;;;;;;;3.07;2.20;;;;;;;;;;6304022;27;19947;-85
2024/03/11 16:34:37;;;;;;;5.35;2.38;;;;;;;;;;6300424;28;20176;-85
2024/03/11 16:37:40;;;;;;;4.38;2.35;;;;;;;;;;6280794;28;20079;-85
2024/03/11 16:40:42;;;;;;;3.95;2.50;;;;;;;;;;6335313;27;20060;-84
2024/03/11 16:43:45;;;;;;;3.78;2.30;;;;;;;;;;6345386;27;20103;-84
2024/03/11 16:46:49;;;;;;;;;;;;;;;;;;6353118;28;20058;-83
2024/03/11 16:49:51;;;;;;;;;;;;;;;;;;6343247;28;19911;-84
2024/03/11 16:52:55;;;;;;;3.60;2.30;;;;;;;;;;6341963;28;19920;-84
2024/03/11 16:55:58;;;;;;;6.63;3.08;;;;;;;;;;6347298;27;20054;-83
2024/03/11 16:59:02;;;;;;;14.23;6.43;;;;;;;;;;6338017;28;20052;-84
2024/03/11 17:02:07;;;;;;;23.55;8.70;;;;;;;;;;6337112;28;20036;-85
2024/03/11 17:05:12;;;;;;;23.05;7.88;;;;;;;;;;6326355;28;20497;-83
2024/03/11 17:08:13;;;;;;;5.30;2.90;;;;;;;;;;6280254;28;20751;-83
2024/03/11 17:11:18;;;;;;;4.68;2.35;;;;;;;;;;6287129;28;20049;-84
2024/03/11 17:14:25;;;;;;;3.28;2.03;;;;;;;;;;6314279;28;20147;-85
2024/03/11 17:17:31;;;;;;;6.63;3.55;;;;;;;;;;6289491;28;20087;-84
2024/03/11 17:20:37;;;;;;;10.43;7.90;;;;;;;;;;6305486;28;20052;-84
2024/03/11 17:23:44;;;;;;;10.00;7.45;;;;;;;;;;6301424;28;20505;-85
2024/03/11 17:26:48;;;;;;;4.93;3.72;;;;;;;;;;6303948;28;20051;-86
2024/03/11 17:29:50;;;;;;;9.68;7.75;;;;;;;;;;6304700;27;20051;-84
2024/03/11 17:32:54;;;;;;;13.18;11.82;;;;;;;;;;6304235;28;20054;-84
2024/03/11 17:35:55;;;;;;;7.80;4.85;;;;;;;;;;6298847;28;20048;-82
2024/03/11 17:38:57;;;;;;;3.85;2.70;;;;;;;;;;6288524;28;20117;-84
2024/03/11 17:41:59;;;;;;;3.38;2.58;;;;;;;;;;6316964;28;20499;-83
2024/03/11 17:45:01;;;;;;;3.70;2.50;;;;;;;;;;6297013;28;20060;-83
2024/03/11 17:48:03;;;;;;;6.50;4.60;;;;;;;;;;6287605;28;20056;-84
2024/03/11 17:51:05;;;;;;;10.82;7.45;;;;;;;;;;6304590;28;20074;-82
2024/03/11 17:54:07;;;;;;;15.73;7.60;;;;;;;;;;6300058;28;20871;-85
2024/03/11 17:57:09;;;;;;;10.85;6.45;;;;;;;;;;6279957;28;20048;-83
2024/03/11 18:00:12;;;;;;;15.20;9.02;;;;;;;;;;6286652;28;20060;-82
2024/03/11 18:03:14;;;;;;;14.77;8.70;;;;;;;;;;6293606;28;20084;-82
2024/03/11 18:06:17;;;;;;;;;;;;;;;;;;6303573;28;20056;-79
2024/03/11 18:09:31;;;;;;;11.77;6.97;;;;;;;;;;6325936;28;19908;-79
2024/03/11 18:12:37;;;;;;;15.63;10.25;;;;;;;;;;6316438;28;20076;-81
2024/03/11 18:15:39;;;;;;;28.40;15.10;;;;;;;;;;6292961;28;20059;-82